createdAt,value
2023-04-29T00:01:47.939Z,8.00
2023-04-29T00:03:48.101Z,7.20
2023-04-29T00:05:48.161Z,7.60
2023-04-29T00:07:47.949Z,7.80
2023-04-29T00:09:47.881Z,7.80
2023-04-29T00:11:47.894Z,7.80
2023-04-29T00:13:47.866Z,7.80
2023-04-29T00:15:47.906Z,7.50
2023-04-29T00:17:47.908Z,9.00
2023-04-29T00:19:48.384Z,8.20
2023-04-29T00:21:47.911Z,7.80
2023-04-29T00:23:47.872Z,7.70
2023-04-29T00:25:47.965Z,7.20
2023-04-29T00:27:47.896Z,7.40
2023-04-29T00:29:47.955Z,7.90
2023-04-29T00:31:47.880Z,6.80
2023-04-29T00:33:47.946Z,7.10
2023-04-29T00:35:48.016Z,7.20
2023-04-29T00:37:47.923Z,7.80
2023-04-29T00:39:47.914Z,7.40
2023-04-29T00:41:47.947Z,7.00
2023-04-29T00:43:47.922Z,8.10
2023-04-29T00:45:47.925Z,7.60
2023-04-29T00:47:47.967Z,7.50
2023-04-29T00:49:47.877Z,8.90
2023-04-29T00:51:47.904Z,8.00
2023-04-29T00:53:49.642Z,8.80
2023-04-29T00:55:47.969Z,7.90
2023-04-29T00:57:47.937Z,7.80
2023-04-29T00:59:51.275Z,8.40
2023-04-29T01:01:48.032Z,8.90
2023-04-29T01:03:48.295Z,7.50
2023-04-29T01:05:47.926Z,7.80
2023-04-29T01:07:47.911Z,7.30
2023-04-29T01:09:47.912Z,8.30
2023-04-29T01:11:52.341Z,8.40
2023-04-29T01:13:47.916Z,6.90
2023-04-29T01:15:47.990Z,10.10
2023-04-29T01:17:47.962Z,8.60
2023-04-29T01:19:48.034Z,6.90
2023-04-29T01:21:48.153Z,8.50
2023-04-29T01:23:47.961Z,10.00
2023-04-29T01:25:47.962Z,8.30
2023-04-29T01:27:47.989Z,9.80
2023-04-29T01:29:47.976Z,8.30
2023-04-29T01:31:47.955Z,7.70
2023-04-29T01:33:47.953Z,6.80
2023-04-29T01:36:47.961Z,7.10
2023-04-29T01:38:47.982Z,6.90
2023-04-29T01:40:47.920Z,7.20
2023-04-29T01:42:48.121Z,8.00
2023-04-29T01:44:47.952Z,9.30
2023-04-29T01:46:48.074Z,7.30
2023-04-29T01:48:47.919Z,8.10
2023-04-29T01:50:48.001Z,8.90
2023-04-29T01:52:47.986Z,7.90
2023-04-29T01:54:48.058Z,7.40
2023-04-29T01:56:47.961Z,7.40
2023-04-29T01:58:48.031Z,8.40
2023-04-29T02:00:47.980Z,6.40
2023-04-29T02:02:48.130Z,7.00
2023-04-29T02:04:48.003Z,8.50
2023-04-29T02:06:48.017Z,6.70
2023-04-29T02:08:48.136Z,8.10
2023-04-29T02:10:48.037Z,8.00
2023-04-29T02:12:48.109Z,7.80
2023-04-29T02:14:48.026Z,7.10
2023-04-29T02:16:48.056Z,7.70
2023-04-29T02:18:47.956Z,9.20
2023-04-29T02:20:50.988Z,8.50
2023-04-29T02:22:48.197Z,7.60
2023-04-29T02:24:48.253Z,7.30
2023-04-29T02:26:47.985Z,8.50
2023-04-29T02:28:48.070Z,12.50
2023-04-29T02:30:48.053Z,7.30
2023-04-29T02:32:50.876Z,7.50
2023-04-29T02:34:47.977Z,7.80
2023-04-29T02:36:47.984Z,8.30
2023-04-29T02:38:47.997Z,8.30
2023-04-29T02:40:47.973Z,9.00
2023-04-29T02:42:48.034Z,7.60
2023-04-29T02:44:47.968Z,7.10
2023-04-29T02:46:48.001Z,8.90
2023-04-29T02:48:49.137Z,6.90
2023-04-29T02:50:50.916Z,7.50
2023-04-29T02:52:48.056Z,7.80
2023-04-29T02:54:48.060Z,6.80
2023-04-29T02:56:47.982Z,7.60
2023-04-29T02:58:47.996Z,6.60
2023-04-29T03:00:50.974Z,7.80
2023-04-29T03:02:48.731Z,8.20
2023-04-29T03:04:50.691Z,8.00
2023-04-29T03:06:48.053Z,10.90
2023-04-29T03:10:57.466Z,20.00
2023-04-29T03:12:57.435Z,19.00
2023-04-29T03:14:57.532Z,60.60
2023-04-29T03:16:57.601Z,54.40
2023-04-29T03:18:57.395Z,19.50
2023-04-29T03:20:57.419Z,25.10
2023-04-29T03:22:57.498Z,47.00
2023-04-29T03:24:57.491Z,14.50
2023-04-29T03:26:57.879Z,15.30
2023-04-29T03:28:57.445Z,6.90
2023-04-29T03:30:57.464Z,8.90
2023-04-29T03:32:57.582Z,8.30
2023-04-29T03:34:57.488Z,9.20
2023-04-29T03:36:57.428Z,7.10
2023-04-29T03:38:57.440Z,11.70
2023-04-29T03:40:57.454Z,19.80
2023-04-29T03:42:57.419Z,62.40
2023-04-29T03:44:57.499Z,29.50
2023-04-29T03:46:57.431Z,34.40
2023-04-29T03:48:57.409Z,39.50
2023-04-29T03:50:57.450Z,38.30
2023-04-29T03:52:57.403Z,24.40
2023-04-29T03:54:57.536Z,16.70
2023-04-29T03:56:57.629Z,50.60
2023-04-29T03:58:57.652Z,28.20
2023-04-29T04:00:57.503Z,27.20
2023-04-29T04:02:57.682Z,35.50
2023-04-29T04:05:00.609Z,47.50
2023-04-29T04:06:58.638Z,64.20
2023-04-29T04:08:57.454Z,42.20
2023-04-29T04:10:57.448Z,48.80
2023-04-29T04:12:57.472Z,59.90
2023-04-29T04:14:57.468Z,22.80
2023-04-29T04:16:57.464Z,40.30
2023-04-29T04:18:57.513Z,26.30
2023-04-29T04:20:57.530Z,37.60
2023-04-29T04:22:57.592Z,20.70
2023-04-29T04:24:57.549Z,10.10
2023-04-29T04:26:57.529Z,17.40
2023-04-29T04:28:57.565Z,23.80
2023-04-29T04:30:57.455Z,26.30
2023-04-29T04:32:57.697Z,22.60
2023-04-29T04:34:57.531Z,47.40
2023-04-29T04:36:57.450Z,36.20
2023-04-29T04:38:57.583Z,48.00
2023-04-29T04:40:57.553Z,45.80
2023-04-29T04:42:57.452Z,38.70
2023-04-29T04:44:57.517Z,27.50
2023-04-29T04:46:57.509Z,53.80
2023-04-29T04:48:57.526Z,73.80
2023-04-29T04:50:57.677Z,52.10
2023-04-29T04:52:57.556Z,65.10
2023-04-29T04:54:57.484Z,32.20
2023-04-29T04:56:57.509Z,50.90
2023-04-29T04:58:57.469Z,29.30
2023-04-29T05:00:57.506Z,30.50
2023-04-29T05:02:57.736Z,23.20
2023-04-29T05:04:57.473Z,23.50
2023-04-29T05:07:00.388Z,20.10
2023-04-29T05:08:57.693Z,19.60
2023-04-29T05:10:57.528Z,13.60
2023-04-29T05:12:57.483Z,14.80
2023-04-29T05:14:57.521Z,14.50
2023-04-29T05:16:57.617Z,44.80
2023-04-29T05:18:57.494Z,34.70
2023-04-29T05:20:57.678Z,31.70
2023-04-29T05:22:57.497Z,12.80
2023-04-29T05:24:57.502Z,14.10
2023-04-29T05:26:57.492Z,8.60
2023-04-29T05:28:57.571Z,8.50
2023-04-29T05:30:57.725Z,8.00
2023-04-29T05:32:57.681Z,8.10
2023-04-29T05:34:57.976Z,7.70
2023-04-29T05:36:57.643Z,7.60
2023-04-29T05:38:57.531Z,7.90
2023-04-29T05:40:57.501Z,7.10
2023-04-29T05:42:57.597Z,8.10
2023-04-29T05:44:57.568Z,7.90
2023-04-29T05:46:57.696Z,8.50
2023-04-29T05:48:57.574Z,7.90
2023-04-29T05:50:58.531Z,8.70
2023-04-29T05:52:57.549Z,7.20
2023-04-29T05:54:57.653Z,7.50
2023-04-29T05:56:57.574Z,7.80
2023-04-29T05:58:57.813Z,7.50
2023-04-29T06:00:59.810Z,6.90
2023-04-29T06:02:59.161Z,7.30
2023-04-29T06:04:57.857Z,8.10
2023-04-29T06:06:57.625Z,7.10
2023-04-29T06:09:00.561Z,8.10
2023-04-29T06:11:02.469Z,7.00
2023-04-29T06:13:57.674Z,8.60
2023-04-29T06:15:57.745Z,6.70
2023-04-29T06:17:57.631Z,7.60
2023-04-29T06:19:57.626Z,8.40
2023-04-29T06:21:57.693Z,8.40
2023-04-29T06:23:57.761Z,7.90
2023-04-29T06:25:57.647Z,8.50
2023-04-29T06:27:57.820Z,7.20
2023-04-29T06:29:57.737Z,8.30
2023-04-29T06:31:57.697Z,8.20
2023-04-29T06:33:57.640Z,7.50
2023-04-29T06:35:57.641Z,8.60
2023-04-29T06:37:57.579Z,7.00
2023-04-29T06:40:00.864Z,7.80
2023-04-29T06:41:57.654Z,7.20
2023-04-29T06:43:57.771Z,8.70
2023-04-29T06:45:57.747Z,7.90
2023-04-29T06:47:57.671Z,8.10
2023-04-29T06:49:57.695Z,11.10
2023-04-29T06:51:57.550Z,7.60
2023-04-29T06:53:57.629Z,8.40
2023-04-29T06:55:57.535Z,8.10
2023-04-29T06:57:57.580Z,7.00
2023-04-29T06:59:57.595Z,8.40
2023-04-29T07:01:57.611Z,9.40
2023-04-29T07:03:57.721Z,6.50
2023-04-29T07:05:57.586Z,6.80
2023-04-29T07:07:57.662Z,7.80
2023-04-29T07:09:57.643Z,7.00
2023-04-29T07:12:00.516Z,7.60
2023-04-29T07:13:57.572Z,7.80
2023-04-29T07:15:57.691Z,8.80
2023-04-29T07:17:57.625Z,8.90
2023-04-29T07:19:57.707Z,8.30
2023-04-29T07:21:57.688Z,8.30
2023-04-29T07:23:57.661Z,7.30
2023-04-29T07:25:57.655Z,7.90
2023-04-29T07:27:57.790Z,7.20
2023-04-29T07:29:59.612Z,8.90
2023-04-29T07:31:57.705Z,6.70
2023-04-29T07:33:57.653Z,7.40
2023-04-29T07:35:57.612Z,8.00
2023-04-29T07:37:57.629Z,8.40
2023-04-29T07:40:00.398Z,8.00
2023-04-29T07:42:00.722Z,8.50
2023-04-29T07:43:57.639Z,7.80
2023-04-29T07:45:57.709Z,7.70
2023-04-29T07:47:57.722Z,7.60
2023-04-29T07:49:57.662Z,7.10
2023-04-29T07:51:57.621Z,9.40
2023-04-29T07:53:57.755Z,8.20
2023-04-29T07:55:57.703Z,7.20
2023-04-29T07:57:59.377Z,8.50
2023-04-29T07:59:57.809Z,9.30
2023-04-29T08:01:57.672Z,6.70
2023-04-29T08:03:57.875Z,10.40
2023-04-29T08:05:57.633Z,8.20
2023-04-29T08:07:57.836Z,7.90
2023-04-29T08:09:57.641Z,8.20
2023-04-29T08:11:57.684Z,8.40
2023-04-29T08:13:58.285Z,7.70
2023-04-29T08:15:57.710Z,9.10
2023-04-29T08:17:57.697Z,8.60
2023-04-29T08:19:57.669Z,8.20
2023-04-29T08:21:59.364Z,10.00
2023-04-29T08:23:57.603Z,7.30
2023-04-29T08:25:57.795Z,6.90
2023-04-29T08:27:57.684Z,11.10
2023-04-29T08:29:57.717Z,7.00
2023-04-29T08:31:57.714Z,6.60
2023-04-29T08:33:57.618Z,7.00
2023-04-29T08:35:57.735Z,7.40
2023-04-29T08:37:57.708Z,7.10
2023-04-29T08:39:57.655Z,7.60
2023-04-29T08:41:57.657Z,8.00
2023-04-29T08:44:01.103Z,8.20
2023-04-29T08:45:57.751Z,7.50
2023-04-29T08:47:59.577Z,8.00
2023-04-29T08:49:57.710Z,7.00
2023-04-29T08:51:57.636Z,8.40
2023-04-29T08:53:57.702Z,7.70
2023-04-29T08:55:57.795Z,7.40
2023-04-29T08:57:57.774Z,6.80
2023-04-29T08:59:57.690Z,7.00
2023-04-29T09:01:57.865Z,8.50
2023-04-29T09:03:57.870Z,5.90
2023-04-29T09:05:57.683Z,7.60
2023-04-29T09:07:57.738Z,7.50
2023-04-29T09:09:57.905Z,7.30
2023-04-29T09:11:57.767Z,7.40
2023-04-29T09:13:57.619Z,7.20
2023-04-29T09:15:57.944Z,7.80
2023-04-29T09:17:57.766Z,7.30
2023-04-29T09:19:57.730Z,7.40
2023-04-29T09:21:58.123Z,7.60
2023-04-29T09:23:57.741Z,7.30
2023-04-29T09:25:57.775Z,7.20
2023-04-29T09:27:57.727Z,7.50
2023-04-29T09:31:57.946Z,8.80
2023-04-29T09:33:57.854Z,7.60
2023-04-29T09:36:02.217Z,7.80
2023-04-29T09:42:41.663Z,7.30
2023-04-29T09:44:41.527Z,7.50
2023-04-29T09:46:41.833Z,7.20
2023-04-29T09:48:41.552Z,6.30
2023-04-29T09:50:41.604Z,8.60
2023-04-29T09:52:41.619Z,7.10
2023-04-29T09:54:41.614Z,7.60
2023-04-29T09:56:41.626Z,7.20
2023-04-29T09:58:41.668Z,7.30
2023-04-29T10:00:41.657Z,8.80
2023-04-29T10:02:41.812Z,7.80
2023-04-29T10:04:41.667Z,8.00
2023-04-29T10:06:41.718Z,6.60
2023-04-29T10:08:41.747Z,8.50
2023-04-29T10:10:41.799Z,7.70
2023-04-29T10:12:41.648Z,7.40
2023-04-29T10:14:41.620Z,6.80
2023-04-29T10:16:44.532Z,7.00
2023-04-29T10:18:41.669Z,7.10
2023-04-29T10:20:41.601Z,8.10
2023-04-29T10:22:41.628Z,6.70
2023-04-29T10:24:41.639Z,7.30
2023-04-29T10:26:42.090Z,6.10
2023-04-29T10:28:41.574Z,7.60
2023-04-29T10:30:41.561Z,8.50
2023-04-29T10:32:50.599Z,7.80
2023-04-29T10:34:41.590Z,7.20
2023-04-29T10:36:41.594Z,6.90
2023-04-29T10:38:41.774Z,8.90
2023-04-29T10:40:41.562Z,8.70
2023-04-29T10:42:41.712Z,7.60
2023-04-29T10:44:41.660Z,7.10
2023-04-29T10:46:41.744Z,7.20
2023-04-29T10:48:41.667Z,5.90
2023-04-29T10:50:41.708Z,6.40
2023-04-29T10:52:41.822Z,7.80
2023-04-29T10:54:41.619Z,7.80
2023-04-29T10:56:41.662Z,6.20
2023-04-29T10:58:41.598Z,7.20
2023-04-29T11:00:41.695Z,8.00
2023-04-29T11:02:41.726Z,7.50
2023-04-29T11:04:41.655Z,6.30
2023-04-29T11:06:41.693Z,7.80
2023-04-29T11:08:43.030Z,7.10
2023-04-29T11:10:41.836Z,8.00
2023-04-29T11:12:41.715Z,7.80
2023-04-29T11:14:41.653Z,7.50
2023-04-29T11:16:41.982Z,7.00
2023-04-29T11:18:44.590Z,6.90
2023-04-29T11:20:41.700Z,7.40
2023-04-29T11:22:41.629Z,6.90
2023-04-29T11:24:41.754Z,6.80
2023-04-29T11:26:41.700Z,6.60
2023-04-29T11:28:41.770Z,6.70
2023-04-29T11:30:41.710Z,7.50
2023-04-29T11:32:42.382Z,8.20
2023-04-29T11:34:41.746Z,6.30
2023-04-29T11:36:41.705Z,7.90
2023-04-29T11:38:41.635Z,7.00
2023-04-29T11:40:45.105Z,7.30
2023-04-29T11:42:41.719Z,6.80
2023-04-29T11:44:41.628Z,7.60
2023-04-29T11:46:41.735Z,7.50
2023-04-29T11:48:41.732Z,8.20
2023-04-29T11:50:45.746Z,8.60
2023-04-29T11:52:41.727Z,7.10
2023-04-29T11:54:41.686Z,7.20
2023-04-29T11:56:41.722Z,7.50
2023-04-29T11:58:41.965Z,7.40
2023-04-29T12:00:41.798Z,6.60
2023-04-29T12:02:41.884Z,7.10
2023-04-29T12:04:41.876Z,8.30
2023-04-29T12:06:41.795Z,7.40
2023-04-29T12:08:41.727Z,7.70
2023-04-29T12:10:41.648Z,7.50
2023-04-29T12:12:41.783Z,8.50
2023-04-29T12:14:41.859Z,7.40
2023-04-29T12:16:41.780Z,7.50
2023-04-29T12:18:41.990Z,7.50
2023-04-29T12:20:44.965Z,7.50
2023-04-29T12:22:41.846Z,7.30
2023-04-29T12:24:41.786Z,7.00
2023-04-29T12:26:41.847Z,9.70
2023-04-29T12:28:41.788Z,7.30
2023-04-29T12:30:41.683Z,7.60
2023-04-29T12:32:41.899Z,7.70
2023-04-29T12:34:41.618Z,8.70
2023-04-29T12:36:41.836Z,7.80
2023-04-29T12:38:41.711Z,8.10
2023-04-29T12:40:43.158Z,6.80
2023-04-29T12:42:41.712Z,7.10
2023-04-29T12:44:41.714Z,7.90
2023-04-29T12:46:43.294Z,8.10
2023-04-29T12:48:43.142Z,7.00
2023-04-29T12:51:45.265Z,7.80
2023-04-29T12:53:41.707Z,7.60
2023-04-29T12:55:42.292Z,6.60
2023-04-29T12:57:41.739Z,7.40
2023-04-29T12:59:41.688Z,7.00
2023-04-29T13:01:42.072Z,6.80
2023-04-29T13:03:41.784Z,6.20
2023-04-29T13:05:42.025Z,7.80
2023-04-29T13:07:41.661Z,7.80
2023-04-29T13:09:41.817Z,8.60
2023-04-29T13:11:41.702Z,6.30
2023-04-29T13:13:41.750Z,7.20
2023-04-29T13:15:41.718Z,10.20
2023-04-29T13:17:41.750Z,8.50
2023-04-29T13:19:51.042Z,6.50
2023-04-29T13:21:41.718Z,8.40
2023-04-29T13:23:41.694Z,8.20
2023-04-29T13:25:43.130Z,8.00
2023-04-29T13:27:41.723Z,8.00
2023-04-29T13:29:41.760Z,6.50
2023-04-29T13:31:41.789Z,7.60
2023-04-29T13:33:41.903Z,7.20
2023-04-29T13:35:41.903Z,8.00
2023-04-29T13:37:41.741Z,6.90
2023-04-29T13:39:45.581Z,7.90
2023-04-29T13:41:45.540Z,7.00
2023-04-29T13:43:43.540Z,6.80
2023-04-29T13:45:45.286Z,8.00
2023-04-29T13:47:57.525Z,8.80
2023-04-29T13:50:16.548Z,7.60
2023-04-29T13:54:41.250Z,8.20
2023-04-29T13:56:36.014Z,8.60
2023-04-29T13:59:46.178Z,7.60
2023-04-29T14:02:14.972Z,7.00
2023-04-29T14:03:41.852Z,8.70
2023-04-29T14:05:42.095Z,8.00
2023-04-29T14:07:41.887Z,8.30
2023-04-29T14:09:41.780Z,7.90
2023-04-29T14:11:41.722Z,8.90
2023-04-29T14:13:41.854Z,7.10
2023-04-29T14:15:41.827Z,8.00
2023-04-29T14:17:41.817Z,7.70
2023-04-29T14:19:42.045Z,7.30
2023-04-29T14:21:41.903Z,8.10
2023-04-29T14:23:41.799Z,9.70
2023-04-29T14:25:41.783Z,8.60
2023-04-29T14:27:42.151Z,8.40
2023-04-29T14:29:42.089Z,6.80
2023-04-29T14:31:42.367Z,7.60
2023-04-29T14:33:41.758Z,7.80
2023-04-29T14:35:41.830Z,6.80
2023-04-29T14:37:41.818Z,8.40
2023-04-29T14:39:41.942Z,7.60
2023-04-29T14:41:41.779Z,8.70
2023-04-29T14:43:41.797Z,6.90
2023-04-29T14:45:42.242Z,8.50
2023-04-29T14:47:41.828Z,9.90
2023-04-29T14:49:41.848Z,9.10
2023-04-29T14:51:41.840Z,7.90
2023-04-29T14:53:41.845Z,9.50
2023-04-29T14:55:45.021Z,8.10
2023-04-29T14:57:41.739Z,7.80
2023-04-29T14:59:41.934Z,8.00
2023-04-29T15:01:41.859Z,7.90
2023-04-29T15:03:44.307Z,7.30
2023-04-29T15:05:45.566Z,7.80
2023-04-29T15:07:41.885Z,7.40
2023-04-29T15:09:41.935Z,8.40
2023-04-29T15:11:41.808Z,7.20
2023-04-29T15:13:42.018Z,8.00
2023-04-29T15:15:42.569Z,8.20
2023-04-29T15:17:42.007Z,7.60
2023-04-29T15:19:42.357Z,7.90
2023-04-29T15:21:42.195Z,7.90
2023-04-29T15:23:41.894Z,7.30
2023-04-29T15:25:41.953Z,8.00
2023-04-29T15:27:41.826Z,6.90
2023-04-29T15:29:41.780Z,7.00
2023-04-29T15:31:41.993Z,8.20
2023-04-29T15:33:42.215Z,6.80
2023-04-29T15:35:41.803Z,8.50
2023-04-29T15:37:41.884Z,8.20
2023-04-29T15:39:42.413Z,7.80
2023-04-29T15:41:41.948Z,7.40
2023-04-29T15:43:41.929Z,8.40
2023-04-29T15:49:50.076Z,7.40
2023-04-29T15:51:50.379Z,9.20
2023-04-29T15:53:49.786Z,7.40
2023-04-29T15:55:49.827Z,8.40
2023-04-29T15:57:49.762Z,8.80
2023-04-29T15:59:51.075Z,7.50
2023-04-29T16:01:49.883Z,8.70
2023-04-29T16:03:49.906Z,8.20
2023-04-29T16:05:49.764Z,8.60
2023-04-29T16:07:49.994Z,8.70
2023-04-29T16:09:49.902Z,7.90
2023-04-29T16:11:49.797Z,9.40
2023-04-29T16:13:49.921Z,7.90
2023-04-29T16:15:49.826Z,10.50
2023-04-29T16:17:49.979Z,8.50
2023-04-29T16:19:49.929Z,8.50
2023-04-29T16:21:50.036Z,9.30
2023-04-29T16:23:49.816Z,9.50
2023-04-29T16:25:50.034Z,8.40
2023-04-29T16:27:53.019Z,9.00
2023-04-29T16:29:49.861Z,8.30
2023-04-29T16:31:49.991Z,9.00
2023-04-29T16:33:49.836Z,9.60
2023-04-29T16:35:49.856Z,8.40
2023-04-29T16:37:49.814Z,8.90
2023-04-29T16:39:49.824Z,7.60
2023-04-29T16:41:49.901Z,7.60
2023-04-29T16:43:49.877Z,9.00
2023-04-29T16:45:49.860Z,10.30
2023-04-29T16:47:49.982Z,8.80
2023-04-29T16:49:49.921Z,8.30
2023-04-29T16:51:49.863Z,10.10
2023-04-29T16:53:49.873Z,7.20
2023-04-29T16:55:49.895Z,9.00
2023-04-29T16:57:49.815Z,8.80
2023-04-29T16:59:49.838Z,9.00
2023-04-29T17:01:50.028Z,8.60
2023-04-29T17:03:49.926Z,7.50
2023-04-29T17:05:49.861Z,7.80
2023-04-29T17:07:49.831Z,8.10
2023-04-29T17:09:49.859Z,8.60
2023-04-29T17:11:49.970Z,8.90
2023-04-29T17:14:49.894Z,8.20
2023-04-29T17:16:49.890Z,8.80
2023-04-29T17:18:49.838Z,7.70
2023-04-29T17:20:50.991Z,9.00
2023-04-29T17:22:49.968Z,7.40
2023-04-29T17:24:49.966Z,8.40
2023-04-29T17:26:49.873Z,8.70
2023-04-29T17:28:49.931Z,8.80
2023-04-29T17:30:49.933Z,11.10
2023-04-29T17:32:50.065Z,8.70
2023-04-29T17:34:49.904Z,9.00
2023-04-29T17:36:49.817Z,9.70
2023-04-29T17:38:49.862Z,8.60
2023-04-29T17:40:49.876Z,7.50
2023-04-29T17:42:49.962Z,8.40
2023-04-29T17:44:50.140Z,9.90
2023-04-29T17:46:53.071Z,7.80
2023-04-29T17:48:49.955Z,8.30
2023-04-29T17:50:50.061Z,7.60
2023-04-29T17:52:49.946Z,8.10
2023-04-29T17:54:49.851Z,8.80
2023-04-29T17:56:50.014Z,8.60
2023-04-29T17:58:49.847Z,9.30
2023-04-29T18:00:54.807Z,9.00
2023-04-29T18:02:50.038Z,7.80
2023-04-29T18:04:49.843Z,8.10
2023-04-29T18:06:49.878Z,8.80
2023-04-29T18:08:50.104Z,8.80
2023-04-29T18:10:49.892Z,8.30
2023-04-29T18:12:49.910Z,7.90
2023-04-29T18:14:49.900Z,7.80
2023-04-29T18:16:50.021Z,8.70
2023-04-29T18:18:49.906Z,8.40
2023-04-29T18:20:50.972Z,9.10
2023-04-29T18:22:49.931Z,7.40
2023-04-29T18:24:49.938Z,7.30
2023-04-29T18:26:49.921Z,9.40
2023-04-29T18:28:49.982Z,8.90
2023-04-29T18:30:49.939Z,8.70
2023-04-29T18:32:52.855Z,9.50
2023-04-29T18:34:49.963Z,7.50
2023-04-29T18:36:50.060Z,8.40
2023-04-29T18:38:50.072Z,8.40
2023-04-29T18:40:50.041Z,7.60
2023-04-29T18:42:49.946Z,7.80
2023-04-29T18:44:49.947Z,7.20
2023-04-29T18:46:49.924Z,9.10
2023-04-29T18:48:50.009Z,7.90
2023-04-29T18:50:49.935Z,7.80
2023-04-29T18:52:49.941Z,9.00
2023-04-29T18:54:49.875Z,7.90
2023-04-29T18:56:49.923Z,8.50
2023-04-29T18:58:49.926Z,8.60
2023-04-29T19:00:50.032Z,9.10
2023-04-29T19:02:50.043Z,8.20
2023-04-29T19:04:50.135Z,8.70
2023-04-29T19:06:50.063Z,6.90
2023-04-29T19:08:49.924Z,8.30
2023-04-29T19:10:49.991Z,8.30
2023-04-29T19:12:49.989Z,8.40
2023-04-29T19:14:49.988Z,7.00
2023-04-29T19:16:49.914Z,7.40
2023-04-29T19:18:49.973Z,7.90
2023-04-29T19:20:50.021Z,9.30
2023-04-29T19:22:49.945Z,7.80
2023-04-29T19:24:49.986Z,8.70
2023-04-29T19:26:50.001Z,9.30
2023-04-29T19:28:50.068Z,10.30
2023-04-29T19:30:49.962Z,13.10
2023-04-29T19:32:56.063Z,8.20
2023-04-29T19:34:52.811Z,8.50
2023-04-29T19:36:50.046Z,8.60
2023-04-29T19:38:50.109Z,8.10
2023-04-29T19:40:49.978Z,8.30
2023-04-29T19:42:49.948Z,8.40
2023-04-29T19:44:50.468Z,7.60
2023-04-29T19:46:50.104Z,8.40
2023-04-29T19:48:50.002Z,7.70
2023-04-29T19:50:49.986Z,7.80
2023-04-29T19:52:49.920Z,8.00
2023-04-29T19:54:49.965Z,8.00
2023-04-29T19:56:50.055Z,8.20
2023-04-29T19:58:50.018Z,8.60
2023-04-29T20:00:50.186Z,9.40
2023-04-29T20:02:50.061Z,8.00
2023-04-29T20:04:52.919Z,6.90
2023-04-29T20:06:52.818Z,8.70
2023-04-29T20:08:50.079Z,7.00
2023-04-29T20:10:50.059Z,8.20
2023-04-29T20:12:50.136Z,7.80
2023-04-29T20:14:50.191Z,8.40
2023-04-29T20:16:50.340Z,7.80
2023-04-29T20:18:50.278Z,8.90
2023-04-29T20:20:50.086Z,8.00
2023-04-29T20:22:50.002Z,6.80
2023-04-29T20:24:53.252Z,9.10
2023-04-29T20:26:50.153Z,6.50
2023-04-29T20:28:50.100Z,10.40
2023-04-29T20:30:50.034Z,12.90
2023-04-29T20:32:50.131Z,9.20
2023-04-29T20:34:50.044Z,9.30
2023-04-29T20:36:50.286Z,7.80
2023-04-29T20:38:51.076Z,9.40
2023-04-29T20:40:50.281Z,6.90
2023-04-29T20:42:50.038Z,7.20
2023-04-29T20:44:50.009Z,8.20
2023-04-29T20:46:50.174Z,8.10
2023-04-29T20:48:50.024Z,9.00
2023-04-29T20:50:49.966Z,7.90
2023-04-29T20:52:49.956Z,8.00
2023-04-29T20:54:50.239Z,7.30
2023-04-29T20:56:50.102Z,7.70
2023-04-29T20:58:50.064Z,8.20
2023-04-29T21:01:50.595Z,8.60
2023-04-29T21:03:49.977Z,8.60
2023-04-29T21:05:50.075Z,9.40
2023-04-29T21:07:49.970Z,8.20
2023-04-29T21:08:52.938Z,8.00
2023-04-29T21:11:49.991Z,8.00
2023-04-29T21:13:50.081Z,8.90
2023-04-29T21:15:50.076Z,7.70
2023-04-29T21:17:50.021Z,7.70
2023-04-29T21:19:50.058Z,8.20
2023-04-29T21:21:50.731Z,7.80
2023-04-29T21:23:50.001Z,10.40
2023-04-29T21:25:50.229Z,9.10
2023-04-29T21:27:50.397Z,7.50
2023-04-29T21:29:50.054Z,8.50
2023-04-29T21:31:50.001Z,8.90
2023-04-29T21:33:50.055Z,7.10
2023-04-29T21:35:50.342Z,8.60
2023-04-29T21:37:50.144Z,9.40
2023-04-29T21:39:53.549Z,9.20
2023-04-29T21:41:50.041Z,7.60
2023-04-29T21:43:50.228Z,7.80
2023-04-29T21:45:50.011Z,8.40
2023-04-29T21:47:50.530Z,7.50
2023-04-29T21:49:50.170Z,10.50
2023-04-29T21:51:50.154Z,7.10
2023-04-29T21:53:49.992Z,8.80
2023-04-29T21:55:50.095Z,8.50
2023-04-29T21:57:50.229Z,8.00
2023-04-29T21:59:50.009Z,7.70
2023-04-29T22:01:50.072Z,8.00
2023-04-29T22:03:50.084Z,8.20
2023-04-29T22:07:50.058Z,7.70
2023-04-29T22:11:50.142Z,7.90
2023-04-29T22:13:50.089Z,8.60
2023-04-29T22:15:50.229Z,8.50
2023-04-29T22:17:58.611Z,6.40
2023-04-29T22:19:50.246Z,7.70
2023-04-29T22:23:14.992Z,7.70
2023-04-29T22:25:15.004Z,9.90
2023-04-29T22:27:15.036Z,7.70
2023-04-29T22:29:15.006Z,8.60
2023-04-29T22:31:15.015Z,8.10
2023-04-29T22:33:15.074Z,9.10
2023-04-29T22:36:15.079Z,6.90
2023-04-29T22:38:15.204Z,9.60
2023-04-29T22:40:18.247Z,5.80
2023-04-29T22:42:15.051Z,6.70
2023-04-29T22:44:14.996Z,8.80
2023-04-29T22:46:15.088Z,8.70
2023-04-29T22:48:15.099Z,8.30
2023-04-29T22:50:15.035Z,8.40
2023-04-29T22:52:15.136Z,6.90
2023-04-29T22:54:15.050Z,7.30
2023-04-29T22:56:15.008Z,7.50
2023-04-29T22:58:15.185Z,8.40
2023-04-29T23:00:17.942Z,8.10
2023-04-29T23:01:24.195Z,8.40
2023-04-29T23:04:15.187Z,9.10
2023-04-29T23:06:15.198Z,8.30
2023-04-29T23:08:15.092Z,8.40
2023-04-29T23:10:15.473Z,8.70
2023-04-29T23:12:15.026Z,7.80
2023-04-29T23:14:15.181Z,7.30
2023-04-29T23:16:18.279Z,8.00
2023-04-29T23:18:15.129Z,9.00
2023-04-29T23:20:15.197Z,9.00
2023-04-29T23:22:15.056Z,8.40
2023-04-29T23:24:15.144Z,8.10
2023-04-29T23:26:16.281Z,8.20
2023-04-29T23:28:15.055Z,7.80
2023-04-29T23:30:15.095Z,9.20
2023-04-29T23:32:15.045Z,8.40
2023-04-29T23:34:15.111Z,7.60
2023-04-29T23:36:15.055Z,8.70
2023-04-29T23:38:15.071Z,7.40
2023-04-29T23:40:15.058Z,8.30
2023-04-29T23:42:15.046Z,10.60
2023-04-29T23:44:15.282Z,8.40
2023-04-29T23:46:15.220Z,8.10
2023-04-29T23:48:15.103Z,8.50
2023-04-29T23:50:15.043Z,8.50
2023-04-29T23:52:15.063Z,7.50
2023-04-29T23:54:15.088Z,7.80
2023-04-29T23:56:15.106Z,8.60
2023-04-29T23:58:15.063Z,8.90
